Metsovo — 8PLX — position and weather

sailwx.info

Track history (hours):
 
Tides and Currents Weather Stations Pressure Air Temp Water Temp Dewpoint Dewpoint Depression Visibility Wind Speed Wind Dir Waves Ship Positions

Metsovo

Last reported at 2018-Apr-15 11:57 UTC. Time now 2018-Apr-20 14:45 UTC.
Position S 21°36' E 113°26'.

Length 190 m; draft 6.5 m.

Type: Cargo ship. MMSI: 314033000.

Date/timePositionNaut miles runAvg speedWind from/ knotsBaromVisibWave heightAir tempDewpointWater temp
2018-Apr-15 11:57S 21°36' E 113°26'22713.3
2018-Apr-14 18:51S 17°52' E 114°07'513.5
2018-Apr-14 18:28S 17°47' E 114°08'613.7
2018-Apr-14 18:00S 17°41' E 114°09'45713.3
2018-Apr-13 07:37S 10°09' E 115°26'314.5
2018-Apr-13 07:27S 10°07' E 115°27'614.3
2018-Apr-13 07:00S 10°01' E 115°28'714.2
2018-Apr-13 06:30S 09°54' E 115°29'714.3
2018-Apr-13 06:00S 09°47' E 115°30'915.4
2018-Apr-13 05:26S 09°38' E 115°32'715.2
2018-Apr-13 04:58S 09°31' E 115°33'714.9
2018-Apr-13 04:28S 09°24' E 115°34'715.1
2018-Apr-13 04:00S 09°17' E 115°35'714.5
2018-Apr-13 03:30S 09°10' E 115°36'714.7
2018-Apr-13 03:00S 09°02' E 115°38'814.8
2018-Apr-13 02:30S 08°55' E 115°39'714.1
2018-Apr-13 02:00S 08°48' E 115°41'713.3
2018-Apr-13 01:30S 08°42' E 115°43'814.4
2018-Apr-13 00:58S 08°34' E 115°45'715.5
2018-Apr-13 00:30S 08°28' E 115°47'714.9
2018-Apr-13 00:00S 08°21' E 115°50'714.2
2018-Apr-12 23:30S 08°15' E 115°54'714.2
2018-Apr-12 23:00S 08°08' E 115°58'714.4
2018-Apr-12 22:29S 08°02' E 116°02'714.6
2018-Apr-12 22:00S 07°56' E 116°05'714.7
2018-Apr-12 21:30S 07°50' E 116°09'714.5
2018-Apr-12 20:59S 07°44' E 116°13'714.4
2018-Apr-12 20:30S 07°37' E 116°17'714.6
2018-Apr-12 20:00S 07°31' E 116°20'714.7
2018-Apr-12 19:30S 07°25' E 116°24'714.3
2018-Apr-12 18:59S 07°19' E 116°28'814.6
2018-Apr-12 18:28S 07°12' E 116°32'714.3
2018-Apr-12 17:59S 07°06' E 116°36'714.5
2018-Apr-12 17:30S 07°00' E 116°39'814.5
2018-Apr-12 16:59S 06°53' E 116°40'714.4
2018-Apr-12 16:29S 06°46' E 116°42'714.3
2018-Apr-12 15:59S 06°39' E 116°43'714.3
2018-Apr-12 15:30S 06°32' E 116°44'914.3
2018-Apr-12 14:53S 06°23' E 116°46'614.3
2018-Apr-12 14:30S 06°18' E 116°47'714.4
2018-Apr-12 13:59S 06°10' E 116°48'714.4
2018-Apr-12 13:30S 06°04' E 116°49'714.3
2018-Apr-12 13:00S 05°57' E 116°51'714.7
2018-Apr-12 12:30S 05°50' E 116°54'1015.0
2018-Apr-12 11:49S 05°41' E 116°58'  
Track history (hours):
 
Tides and Currents Weather Stations Pressure Air Temp Water Temp Dewpoint Dewpoint Depression Visibility Wind Speed Wind Dir Waves Ship Positions

Metsovo

Last reported at 2018-Apr-15 11:57 UTC. Time now 2018-Apr-20 14:45 UTC.
Position S 21°36' E 113°26'.

Length 190 m; draft 6.5 m.

Type: Cargo ship. MMSI: 314033000.

Date/timePositionNaut miles runAvg speedWind from/ knotsBaromVisibWave heightAir tempDewpointWater temp
2018-Apr-15 11:57S 21°36' E 113°26'22713.3
2018-Apr-14 18:51S 17°52' E 114°07'513.5
2018-Apr-14 18:28S 17°47' E 114°08'613.7
2018-Apr-14 18:00S 17°41' E 114°09'45713.3
2018-Apr-13 07:37S 10°09' E 115°26'314.5
2018-Apr-13 07:27S 10°07' E 115°27'614.3
2018-Apr-13 07:00S 10°01' E 115°28'714.2
2018-Apr-13 06:30S 09°54' E 115°29'714.3
2018-Apr-13 06:00S 09°47' E 115°30'915.4
2018-Apr-13 05:26S 09°38' E 115°32'715.2
2018-Apr-13 04:58S 09°31' E 115°33'714.9
2018-Apr-13 04:28S 09°24' E 115°34'715.1
2018-Apr-13 04:00S 09°17' E 115°35'714.5
2018-Apr-13 03:30S 09°10' E 115°36'714.7
2018-Apr-13 03:00S 09°02' E 115°38'814.8
2018-Apr-13 02:30S 08°55' E 115°39'714.1
2018-Apr-13 02:00S 08°48' E 115°41'713.3
2018-Apr-13 01:30S 08°42' E 115°43'814.4
2018-Apr-13 00:58S 08°34' E 115°45'715.5
2018-Apr-13 00:30S 08°28' E 115°47'714.9
2018-Apr-13 00:00S 08°21' E 115°50'714.2
2018-Apr-12 23:30S 08°15' E 115°54'714.2
2018-Apr-12 23:00S 08°08' E 115°58'714.4
2018-Apr-12 22:29S 08°02' E 116°02'714.6
2018-Apr-12 22:00S 07°56' E 116°05'714.7
2018-Apr-12 21:30S 07°50' E 116°09'714.5
2018-Apr-12 20:59S 07°44' E 116°13'714.4
2018-Apr-12 20:30S 07°37' E 116°17'714.6
2018-Apr-12 20:00S 07°31' E 116°20'714.7
2018-Apr-12 19:30S 07°25' E 116°24'714.3
2018-Apr-12 18:59S 07°19' E 116°28'814.6
2018-Apr-12 18:28S 07°12' E 116°32'714.3
2018-Apr-12 17:59S 07°06' E 116°36'714.5
2018-Apr-12 17:30S 07°00' E 116°39'814.5
2018-Apr-12 16:59S 06°53' E 116°40'714.4
2018-Apr-12 16:29S 06°46' E 116°42'714.3
2018-Apr-12 15:59S 06°39' E 116°43'714.3
2018-Apr-12 15:30S 06°32' E 116°44'914.3
2018-Apr-12 14:53S 06°23' E 116°46'614.3
2018-Apr-12 14:30S 06°18' E 116°47'714.4
2018-Apr-12 13:59S 06°10' E 116°48'714.4
2018-Apr-12 13:30S 06°04' E 116°49'714.3
2018-Apr-12 13:00S 05°57' E 116°51'714.7
2018-Apr-12 12:30S 05°50' E 116°54'1015.0
2018-Apr-12 11:49S 05°41' E 116°58'  

Dump ship's entire track history